createdAt,value
2023-05-17T00:02:14.563Z,7.90
2023-05-17T00:12:17.639Z,7.90
2023-05-17T00:22:20.177Z,7.90
2023-05-17T00:32:24.829Z,7.90
2023-05-17T00:42:27.584Z,7.92
2023-05-17T00:52:29.986Z,7.91
2023-05-17T01:02:32.462Z,7.92
2023-05-17T01:12:47.280Z,7.79
2023-05-17T01:22:54.106Z,7.70
2023-05-17T01:32:59.620Z,7.62
2023-05-17T01:43:19.112Z,7.55
2023-05-17T01:53:27.027Z,7.50
2023-05-17T02:03:29.858Z,7.42
2023-05-17T02:13:33.308Z,7.28
2023-05-17T02:23:36.444Z,7.15
2023-05-17T02:33:38.995Z,7.08
2023-05-17T02:43:41.918Z,7.07
2023-05-17T02:53:45.750Z,7.07
2023-05-17T03:03:49.819Z,7.05
2023-05-17T03:13:52.830Z,7.02
2023-05-17T03:23:55.572Z,7.01
2023-05-17T03:33:58.116Z,6.86
2023-05-17T03:44:01.570Z,6.71
2023-05-17T03:54:04.960Z,6.57
2023-05-17T04:04:08.283Z,6.41
2023-05-17T04:14:11.635Z,6.28
2023-05-17T04:24:14.371Z,6.28
2023-05-17T04:34:17.414Z,6.44
2023-05-17T04:44:20.161Z,6.56
2023-05-17T04:54:22.933Z,6.66
2023-05-17T05:04:27.774Z,6.74
2023-05-17T05:14:30.474Z,6.94
2023-05-17T05:24:33.075Z,7.07
2023-05-17T05:34:37.282Z,7.35
2023-05-17T05:44:43.420Z,7.73
2023-05-17T05:54:50.641Z,8.27
2023-05-17T06:04:54.786Z,8.59
2023-05-17T06:14:58.160Z,8.88
2023-05-17T06:25:01.433Z,9.33
2023-05-17T06:35:05.175Z,9.72
2023-05-17T06:45:08.992Z,9.98
2023-05-17T06:56:11.734Z,10.19
2023-05-17T07:06:14.764Z,10.45
2023-05-17T07:16:18.702Z,10.67
2023-05-17T07:26:23.065Z,11.01
2023-05-17T07:36:27.970Z,11.36
2023-05-17T07:46:35.422Z,11.70
2023-05-17T07:56:43.552Z,12.30
2023-05-17T08:06:49.535Z,12.54
2023-05-17T08:16:52.495Z,13.14
2023-05-17T08:26:58.237Z,13.68
2023-05-17T08:37:01.586Z,14.01
2023-05-17T08:47:04.881Z,14.17
2023-05-17T08:57:08.574Z,13.73
2023-05-17T09:07:11.797Z,13.83
2023-05-17T09:17:15.794Z,14.36
2023-05-17T09:27:19.339Z,13.99
2023-05-17T09:37:22.536Z,13.82
2023-05-17T09:47:25.068Z,14.15
2023-05-17T09:57:29.942Z,14.46
2023-05-17T10:07:34.350Z,14.37
2023-05-17T10:17:45.440Z,14.07
2023-05-17T10:27:53.352Z,13.74
2023-05-17T10:37:56.788Z,14.39
2023-05-17T10:48:02.952Z,14.73
2023-05-17T10:58:10.780Z,14.42
2023-05-17T11:08:15.387Z,14.56
2023-05-17T11:18:29.481Z,15.02
2023-05-17T11:28:38.433Z,15.13
2023-05-17T11:39:01.449Z,14.98
2023-05-17T11:49:17.784Z,15.41
2023-05-17T11:59:28.036Z,16.13
2023-05-17T12:09:31.172Z,16.63
2023-05-17T12:19:34.266Z,17.48
2023-05-17T12:29:37.569Z,17.60
2023-05-17T12:39:41.734Z,18.19
2023-05-17T12:49:56.592Z,17.04
2023-05-17T13:00:07.078Z,16.56
2023-05-17T13:10:23.406Z,16.14
2023-05-17T13:20:26.306Z,17.05
2023-05-17T13:30:29.407Z,16.89
2023-05-17T13:40:33.061Z,16.92
2023-05-17T13:50:36.782Z,17.40
2023-05-17T14:00:43.415Z,17.98
2023-05-17T14:10:46.975Z,17.89
2023-05-17T14:20:50.899Z,16.77
2023-05-17T14:30:54.074Z,16.76
2023-05-17T14:40:57.105Z,17.35
2023-05-17T14:51:01.126Z,16.39
2023-05-17T15:01:05.447Z,16.46
2023-05-17T15:11:13.878Z,16.16
2023-05-17T15:21:18.226Z,16.18
2023-05-17T15:31:21.683Z,15.39
2023-05-17T15:41:30.847Z,15.35
2023-05-17T15:51:34.421Z,15.21
2023-05-17T16:01:38.101Z,14.93
2023-05-17T16:11:41.544Z,15.01
2023-05-17T16:21:45.005Z,14.54
2023-05-17T16:31:48.869Z,14.60
2023-05-17T16:41:53.199Z,14.58
2023-05-17T16:51:56.144Z,14.28
2023-05-17T17:01:59.175Z,14.06
2023-05-17T17:12:06.971Z,13.80
2023-05-17T17:22:19.801Z,13.78
2023-05-17T17:32:22.482Z,13.74
2023-05-17T17:42:25.629Z,13.53
2023-05-17T17:52:29.466Z,13.28
2023-05-17T18:02:32.707Z,13.09
2023-05-17T18:12:35.722Z,13.06
2023-05-17T18:22:39.008Z,12.98
2023-05-17T18:32:42.500Z,12.79
2023-05-17T18:42:46.176Z,12.53
2023-05-17T18:52:48.968Z,12.50
2023-05-17T19:02:51.573Z,12.14
2023-05-17T19:12:55.718Z,11.92
2023-05-17T19:23:00.009Z,11.73
2023-05-17T19:33:04.993Z,11.52
2023-05-17T19:43:09.063Z,11.21
2023-05-17T19:53:12.476Z,10.64
2023-05-17T20:03:16.645Z,10.18
2023-05-17T20:13:23.605Z,9.81
2023-05-17T20:23:26.552Z,9.63
2023-05-17T20:33:30.161Z,9.67
2023-05-17T20:43:35.562Z,9.50
2023-05-17T20:53:39.494Z,9.26
2023-05-17T21:03:43.846Z,8.94
2023-05-17T21:13:46.915Z,8.63
2023-05-17T21:23:50.153Z,8.30
2023-05-17T21:33:53.812Z,7.97
2023-05-17T21:43:57.436Z,7.72
2023-05-17T21:54:01.426Z,7.53
2023-05-17T22:04:04.308Z,7.32
2023-05-17T22:14:08.130Z,7.26
2023-05-17T22:24:12.363Z,7.24
2023-05-17T22:34:16.245Z,7.22
2023-05-17T22:44:20.007Z,7.13
2023-05-17T22:54:23.841Z,7.11
2023-05-17T23:04:26.794Z,7.11
2023-05-17T23:14:29.576Z,7.11
2023-05-17T23:24:32.043Z,7.04
2023-05-17T23:34:34.496Z,6.91
2023-05-17T23:44:38.480Z,6.72
2023-05-17T23:54:43.968Z,6.58
